North Sutton, New Hampshire
Current Conditions -  °F | °C
As of 4:51 PM on Monday 20 Oct 2014 (Local Time) from KCON Reporting Station
Clear Clear  
Wind Chill: 52°   Ceiling: Unl
Heat Index: 52°   Visibility: 10mi
Dew Point: 30°   Wind: 8mph
Humidity: 43%   Direction: 230°SW
Pressure: 29.94"   Gusts: NA
Location:  43.37°N, 71.94°W
Report Text: KCON 202051Z AUTO 23007KT 10SM CLR 11/M01 A2994 RMK AO2 SLP142 T01111011 56002
Loading
Personal Weather Stations






























Interactive Weather Map
Tropical Storm Tracking
New forecast layout! Learn more

10-Day Weather Forecast

Advertisements
Track Severe Weather on mobile